Aérodrome :
LOGIN :

S'inscrire | Disclaimer

   EN    FR    IT 

 










Légende :    VFR   VFR Marginal   IFR   IFR Intensif   IFR Très Intensif
Visi : 
Plafond : 
>= 8 km
>= 3000ft
5 à 8 km
1000 à 3000 ft
1500m à 5 km
500 à 1000 ft
800 à 1500m
200 à 500 ft
< 800m
< 200 ft
Symboles :   Orages  Brouillard  Fortes neiges  Fortes précipitations  Vent > 20 kt
SIGMETs :   Divers  Orages  Givrage  Turbulence  Onde Orograph.  Cendres Volcan.







- Altitude de l'aérodrome : 75 ft
- Code IATA : YEO


EGDY - RNAS Yeovilton

DERNIER METAR :
  • 151450Z 04007KT 9999 FEW007 BKN009 OVC015 12/11 Q1011 GRN BECMG 3000 -RADZ BKN006 YLO1

METARs EXPIRÉS :
  • 151350Z 04009KT 8000 -DZ SCT007 BKN009 12/11 Q1011 GRN BECMG 3000 -RADZ BKN006 YLO1
  • 151250Z 04013KT 5000 -DZ FEW007 BKN009 12/10 Q1011 GRN BECMG 3000 -RADZ BKN006 YLO1

TAF TAF EGDY
Valide du 15 à 15h jusqu'au 16 à 00h UTC


151355Z 1515/1524 05010KT 4000 -DZ FEW006 BKN009
TEMPO 1515/1518 3000 -RADZ FEW004 BKN006
PROB40
TEMPO 1515/1518 2000 -DZ BR FEW002 SCT004
BECMG 1517/1519 2000 -DZ BR BKN004
TEMPO 1518/1524 BKN002
PROB40 1518/1524 0500 FG SCT000
Pas de NOTAMs connus pour ce terrain.
1 SIGMET publié pour la FIR London (EGTT) :
 
Turbulence forte
EGTT SIGMET 04 VALID 151149/151530 EGRR
EGTT LONDON FIR SEV TURB FCST W OF LINE N5500 W00332 - N4957 W00215 FL240/350 MOV E 20KT WKN=



MET'MAP, la Météo Aéronautique d'un coup d'oeil ! - Copyright ORBIFLY Décembre 2007 - Disclaimer

ORBIFLY MET'MAP TEAM :

Programmation & Développement : Alexandra Zaïnal
Conception & Développement : Baudouin d'Aumeries
Co-Programmation & Développement : Marc-Olivier Méhu
Soutien technique & logistique : Manuel Goepfert

Contact : metmap@orbifly.com




SOURCES & CREDITS :

   NOAA